Time;durP1;ratioP1;P1;durP2;ratioP2;P2;SDS_P1;SDS_P2;PMS_P1;PMS_P2;Temp;Humidity;BMP_temperature;BMP_pressure;BME280_temperature;BME280_humidity;BME280_pressure;Samples;Min_cycle;Max_cycle;Signal;HPM_P1;HPM_P2
2023/05/10 00:01:42;;;;;;;22.85;12.60;;;;;;;;;;4943068;28;94205;-83
2023/05/10 00:04:08;;;;;;;23.17;11.98;;;;;;;;;;4945348;28;92450;-84
2023/05/10 00:06:35;;;;;;;22.95;12.50;;;;;;;;;;4939462;28;92911;-83
2023/05/10 00:09:02;;;;;;;22.27;11.90;;;;;;;;;;4948276;28;96046;-83
2023/05/10 00:11:29;;;;;;;24.40;12.95;;;;;;;;;;4948930;28;92478;-83
2023/05/10 00:13:55;;;;;;;24.48;12.80;;;;;;;;;;4948782;28;92779;-82
2023/05/10 00:16:22;;;;;;;17.80;9.95;;;;;;;;;;4948003;28;93927;-81
2023/05/10 00:18:49;;;;;;;22.92;11.57;;;;;;;;;;4950163;28;92511;-83
2023/05/10 00:21:15;;;;;;;23.27;12.57;;;;;;;;;;4952288;28;92388;-83
2023/05/10 00:23:42;;;;;;;21.27;12.23;;;;;;;;;;4948252;28;94916;-83
2023/05/10 00:26:08;;;;;;;23.55;12.13;;;;;;;;;;4950422;28;95228;-81
2023/05/10 00:28:36;;;;;;;26.10;14.25;;;;;;;;;;4947111;28;95699;-81
2023/05/10 00:31:03;;;;;;;25.08;13.50;;;;;;;;;;4947069;28;92650;-81
2023/05/10 00:33:29;;;;;;;19.42;9.85;;;;;;;;;;4947450;28;92909;-81
2023/05/10 00:35:56;;;;;;;22.67;12.13;;;;;;;;;;4949415;28;93644;-81
2023/05/10 00:38:22;;;;;;;20.25;11.70;;;;;;;;;;4948822;28;92402;-80
2023/05/10 00:40:49;;;;;;;26.02;14.02;;;;;;;;;;4948305;28;93093;-81
2023/05/10 00:43:23;;;;;;;23.42;11.48;;;;;;;;;;4935021;28;96185;-81
2023/05/10 00:45:50;;;;;;;23.77;12.02;;;;;;;;;;4948899;28;92964;-81
2023/05/10 00:48:17;;;;;;;23.08;11.70;;;;;;;;;;4929771;28;98415;-81
2023/05/10 00:50:44;;;;;;;31.30;12.93;;;;;;;;;;4948262;28;92515;-81
2023/05/10 00:53:11;;;;;;;28.70;14.35;;;;;;;;;;4949705;28;94412;-81
2023/05/10 00:55:38;;;;;;;22.77;11.88;;;;;;;;;;4950768;28;95768;-81
2023/05/10 00:58:04;;;;;;;23.77;12.48;;;;;;;;;;4948671;28;92430;-81
2023/05/10 01:00:32;;;;;;;28.33;14.27;;;;;;;;;;4951343;28;92612;-81
2023/05/10 01:02:59;;;;;;;21.55;11.10;;;;;;;;;;4952507;28;92893;-81
2023/05/10 01:05:27;;;;;;;21.40;11.27;;;;;;;;;;4954946;28;92671;-81
2023/05/10 01:07:53;;;;;;;;;;;;;;;;;;4952695;28;93078;-80
2023/05/10 01:10:20;;;;;;;22.95;12.35;;;;;;;;;;4954972;28;117726;-81
2023/05/10 01:12:47;;;;;;;27.00;14.60;;;;;;;;;;4970265;28;99120;-80
2023/05/10 01:15:14;;;;;;;19.77;10.07;;;;;;;;;;4972699;28;93091;-82
2023/05/10 01:17:43;;;;;;;29.88;14.80;;;;;;;;;;4970699;28;92280;-81
2023/05/10 01:20:10;;;;;;;23.75;12.48;;;;;;;;;;4972031;28;93685;-81
2023/05/10 01:22:58;;;;;;;26.25;13.93;;;;;;;;;;4969448;28;94963;-80
2023/05/10 01:25:44;;;;;;;24.15;12.68;;;;;;;;;;4955395;28;92469;-82
2023/05/10 01:28:10;;;;;;;;;;;;;;;;;;4958912;28;92651;-80
2023/05/10 01:30:49;;;;;;;26.13;13.43;;;;;;;;;;4956240;28;92235;-81
2023/05/10 01:33:15;;;;;;;24.55;13.90;;;;;;;;;;4950316;28;94108;-82
2023/05/10 01:35:46;;;;;;;30.67;12.88;;;;;;;;;;4950642;28;94288;-81
2023/05/10 01:38:27;;;;;;;24.85;12.32;;;;;;;;;;4951582;28;94966;-81
2023/05/10 01:41:05;;;;;;;22.83;12.13;;;;;;;;;;4952552;28;99785;-80
2023/05/10 01:43:34;;;;;;;24.20;12.82;;;;;;;;;;4954609;28;93141;-81
2023/05/10 01:46:00;;;;;;;26.35;13.88;;;;;;;;;;4963336;28;92509;-80
2023/05/10 01:48:27;;;;;;;23.65;11.88;;;;;;;;;;4955106;28;93135;-79
2023/05/10 01:50:55;;;;;;;28.85;13.77;;;;;;;;;;4949290;28;93122;-81
2023/05/10 01:53:22;;;;;;;26.67;13.55;;;;;;;;;;4950853;28;93043;-80
2023/05/10 01:55:50;;;;;;;23.88;12.15;;;;;;;;;;4951037;28;92899;-80
2023/05/10 01:58:18;;;;;;;27.35;13.55;;;;;;;;;;4948885;28;92818;-79
2023/05/10 02:00:46;;;;;;;24.95;12.52;;;;;;;;;;4948214;28;95734;-79
2023/05/10 02:03:14;;;;;;;23.45;11.98;;;;;;;;;;4948382;28;96246;-80
2023/05/10 02:05:44;;;;;;;26.83;13.77;;;;;;;;;;4947437;28;92909;-80
2023/05/10 02:08:13;;;;;;;28.17;14.32;;;;;;;;;;4962029;28;94287;-80
2023/05/10 02:10:40;;;;;;;27.33;13.00;;;;;;;;;;4968594;28;93732;-81
2023/05/10 02:13:07;;;;;;;31.63;15.13;;;;;;;;;;4949757;28;92839;-81
2023/05/10 02:15:34;;;;;;;28.00;14.20;;;;;;;;;;4949059;28;93761;-82
2023/05/10 02:18:02;;;;;;;27.50;13.30;;;;;;;;;;4950878;28;93695;-81
2023/05/10 02:20:30;;;;;;;33.22;15.00;;;;;;;;;;4950481;28;92980;-80
2023/05/10 02:22:57;;;;;;;21.63;10.82;;;;;;;;;;4950938;28;94134;-81
2023/05/10 02:25:25;;;;;;;30.55;14.80;;;;;;;;;;4950932;28;92554;-81
2023/05/10 02:27:53;;;;;;;29.73;14.80;;;;;;;;;;4948960;28;94854;-81
2023/05/10 02:30:21;;;;;;;31.10;15.40;;;;;;;;;;4950348;28;93228;-80
2023/05/10 02:32:49;;;;;;;33.25;15.88;;;;;;;;;;4952792;28;93912;-80
2023/05/10 02:35:16;;;;;;;27.58;13.20;;;;;;;;;;4950220;28;94246;-80
2023/05/10 02:37:43;;;;;;;24.40;12.82;;;;;;;;;;4945360;28;92518;-81
2023/05/10 02:40:10;;;;;;;32.30;16.13;;;;;;;;;;4949980;28;93005;-80
2023/05/10 02:42:38;;;;;;;32.50;16.38;;;;;;;;;;4949762;28;92964;-80
2023/05/10 02:45:07;;;;;;;24.45;12.13;;;;;;;;;;4950638;28;91796;-80
2023/05/10 02:47:34;;;;;;;30.38;14.32;;;;;;;;;;4932497;28;95151;-81
2023/05/10 02:50:01;;;;;;;33.88;16.92;;;;;;;;;;4950168;28;94190;-80
2023/05/10 02:52:30;;;;;;;32.38;15.57;;;;;;;;;;4945750;28;94951;-79
2023/05/10 02:55:00;;;;;;;40.05;17.92;;;;;;;;;;4951384;28;96384;-80
2023/05/10 02:57:28;;;;;;;38.17;17.55;;;;;;;;;;4949817;28;92782;-80
2023/05/10 02:59:55;;;;;;;33.25;15.38;;;;;;;;;;4950209;28;92936;-81
2023/05/10 03:02:21;;;;;;;34.33;15.77;;;;;;;;;;4948324;28;93232;-80
2023/05/10 03:04:48;;;;;;;29.50;14.65;;;;;;;;;;4950006;28;94026;-80
2023/05/10 03:07:14;;;;;;;40.20;18.00;;;;;;;;;;4948309;28;93793;-80
2023/05/10 03:09:42;;;;;;;32.35;15.27;;;;;;;;;;4948918;28;95009;-80
2023/05/10 03:12:15;;;;;;;37.88;17.25;;;;;;;;;;4947122;28;93930;-81
2023/05/10 03:15:00;;;;;;;39.58;18.23;;;;;;;;;;4949392;28;93956;-81
2023/05/10 03:17:32;;;;;;;40.10;18.05;;;;;;;;;;4949037;28;97572;-81
2023/05/10 03:20:03;;;;;;;43.58;19.13;;;;;;;;;;4949604;28;94831;-81
2023/05/10 03:22:36;;;;;;;44.92;18.83;;;;;;;;;;4947576;28;93427;-82
2023/05/10 03:25:05;;;;;;;43.05;18.98;;;;;;;;;;4931589;28;93617;-81
2023/05/10 03:27:33;;;;;;;43.88;19.25;;;;;;;;;;4948647;28;95760;-80
2023/05/10 03:30:01;;;;;;;34.83;15.30;;;;;;;;;;4949521;28;93073;-80
2023/05/10 03:32:32;;;;;;;37.83;16.42;;;;;;;;;;4947067;28;92528;-79
2023/05/10 03:34:59;;;;;;;34.92;15.88;;;;;;;;;;4953556;28;95531;-80
2023/05/10 03:37:25;;;;;;;37.17;16.77;;;;;;;;;;4963513;28;93279;-80
2023/05/10 03:39:51;;;;;;;37.30;18.00;;;;;;;;;;4950941;28;92831;-80
2023/05/10 03:42:18;;;;;;;40.50;17.52;;;;;;;;;;4962531;28;97335;-80
2023/05/10 03:44:44;;;;;;;34.75;14.77;;;;;;;;;;4966622;28;93084;-80
2023/05/10 03:47:11;;;;;;;36.40;16.77;;;;;;;;;;4948500;28;96040;-81
2023/05/10 03:49:37;;;;;;;34.22;15.70;;;;;;;;;;4961043;28;92957;-81
2023/05/10 03:52:05;;;;;;;33.67;15.73;;;;;;;;;;4970933;28;93089;-80
2023/05/10 03:54:32;;;;;;;32.63;15.98;;;;;;;;;;4962594;28;92972;-80
2023/05/10 03:56:58;;;;;;;33.53;15.38;;;;;;;;;;4976332;28;92923;-81
2023/05/10 03:59:28;;;;;;;35.88;15.48;;;;;;;;;;4957532;28;92034;-81
2023/05/10 04:01:56;;;;;;;35.08;16.33;;;;;;;;;;4958186;28;93158;-81
2023/05/10 04:04:23;;;;;;;38.67;16.63;;;;;;;;;;4950281;28;92452;-80
2023/05/10 04:06:49;;;;;;;32.88;15.02;;;;;;;;;;4948700;28;94924;-82
2023/05/10 04:09:16;;;;;;;32.60;15.30;;;;;;;;;;4931034;28;94453;-81
2023/05/10 04:11:43;;;;;;;37.53;16.33;;;;;;;;;;4947385;28;92655;-81
2023/05/10 04:14:09;;;;;;;32.92;16.02;;;;;;;;;;4948843;28;92629;-82
2023/05/10 04:16:36;;;;;;;27.65;12.38;;;;;;;;;;4947990;28;93021;-80
2023/05/10 04:19:03;;;;;;;31.52;15.07;;;;;;;;;;4947548;28;92538;-80
2023/05/10 04:21:30;;;;;;;30.85;13.85;;;;;;;;;;4952190;28;92779;-80
2023/05/10 04:23:56;;;;;;;32.28;14.75;;;;;;;;;;4949726;28;99315;-81
2023/05/10 04:26:24;;;;;;;29.40;13.77;;;;;;;;;;4948536;28;92690;-80
2023/05/10 04:28:51;;;;;;;32.80;14.68;;;;;;;;;;4947993;28;93398;-80
2023/05/10 04:31:17;;;;;;;32.92;14.40;;;;;;;;;;4948661;28;94997;-80
2023/05/10 04:33:44;;;;;;;36.17;15.77;;;;;;;;;;4948885;28;95279;-81
2023/05/10 04:36:10;;;;;;;30.05;13.98;;;;;;;;;;4948822;28;92671;-80
2023/05/10 04:38:37;;;;;;;31.75;14.38;;;;;;;;;;4933668;28;92788;-80
2023/05/10 04:41:07;;;;;;;31.48;14.18;;;;;;;;;;4938991;28;92984;-81
2023/05/10 04:43:34;;;;;;;32.85;15.05;;;;;;;;;;4949932;28;94212;-81
2023/05/10 04:46:00;;;;;;;33.55;15.32;;;;;;;;;;4947497;28;93918;-80
2023/05/10 04:48:27;;;;;;;34.05;15.20;;;;;;;;;;4949526;28;92528;-81
2023/05/10 04:50:53;;;;;;;39.17;16.65;;;;;;;;;;4949612;28;92440;-82
2023/05/10 04:53:20;;;;;;;39.88;16.77;;;;;;;;;;4949575;28;93269;-84
2023/05/10 04:55:47;;;;;;;39.25;16.52;;;;;;;;;;4948930;28;94826;-83
2023/05/10 04:58:14;;;;;;;39.30;16.25;;;;;;;;;;4945139;28;92459;-81
2023/05/10 05:00:41;;;;;;;39.22;16.58;;;;;;;;;;4932272;28;95568;-81
2023/05/10 05:03:07;;;;;;;38.53;16.70;;;;;;;;;;4946070;28;93805;-83
2023/05/10 05:05:34;;;;;;;39.65;17.40;;;;;;;;;;4951134;28;92518;-82
2023/05/10 05:08:01;;;;;;;39.53;16.80;;;;;;;;;;4947387;28;94332;-82
2023/05/10 05:10:27;;;;;;;41.03;17.67;;;;;;;;;;4947993;28;93293;-83
2023/05/10 05:12:54;;;;;;;36.90;16.17;;;;;;;;;;4948217;28;94355;-83
2023/05/10 05:15:20;;;;;;;40.97;16.90;;;;;;;;;;4947276;28;92963;-84
2023/05/10 05:17:47;;;;;;;38.35;16.88;;;;;;;;;;4944597;28;93131;-83
2023/05/10 05:20:13;;;;;;;39.38;16.90;;;;;;;;;;4948758;28;95152;-83
2023/05/10 05:22:40;;;;;;;39.55;16.70;;;;;;;;;;4947865;28;93909;-82
2023/05/10 05:25:07;;;;;;;45.72;17.85;;;;;;;;;;4947892;28;92948;-82
2023/05/10 05:27:33;;;;;;;38.35;17.92;;;;;;;;;;4952484;28;92808;-82
2023/05/10 05:30:00;;;;;;;40.20;16.90;;;;;;;;;;4948448;28;92502;-83
2023/05/10 05:32:26;;;;;;;38.47;16.70;;;;;;;;;;4947540;28;96239;-83
2023/05/10 05:34:53;;;;;;;39.67;17.55;;;;;;;;;;4950493;28;93251;-82
2023/05/10 05:37:20;;;;;;;41.05;17.08;;;;;;;;;;4949291;28;91754;-82
2023/05/10 05:39:47;;;;;;;41.55;18.58;;;;;;;;;;4940664;28;94651;-81
2023/05/10 05:42:14;;;;;;;39.35;17.88;;;;;;;;;;4952437;28;93418;-82
2023/05/10 05:44:40;;;;;;;41.92;18.42;;;;;;;;;;4950510;28;94943;-81
2023/05/10 05:47:07;;;;;;;46.38;18.48;;;;;;;;;;4956359;28;96387;-83
2023/05/10 05:49:33;;;;;;;43.33;18.02;;;;;;;;;;4953041;28;92856;-83
2023/05/10 05:52:00;;;;;;;40.78;18.80;;;;;;;;;;4952484;28;92324;-83
2023/05/10 05:54:27;;;;;;;42.45;17.98;;;;;;;;;;4954627;28;92743;-82
2023/05/10 05:56:57;;;;;;;42.22;17.27;;;;;;;;;;4955201;28;92498;-83
2023/05/10 05:59:27;;;;;;;38.65;17.75;;;;;;;;;;4951175;28;96035;-81
2023/05/10 06:01:53;;;;;;;38.60;17.88;;;;;;;;;;4951575;28;92361;-81
2023/05/10 06:04:20;;;;;;;48.58;20.40;;;;;;;;;;4950878;28;92455;-81
2023/05/10 06:06:46;;;;;;;43.72;18.98;;;;;;;;;;4950812;28;97184;-81
2023/05/10 06:09:13;;;;;;;28.48;12.77;;;;;;;;;;4953754;28;95927;-80
2023/05/10 06:11:39;;;;;;;19.60;9.15;;;;;;;;;;4952237;28;93975;-81
2023/05/10 06:14:07;;;;;;;22.27;10.30;;;;;;;;;;4949549;28;92976;-81
2023/05/10 06:16:34;;;;;;;18.45;9.52;;;;;;;;;;4951190;28;92900;-83
2023/05/10 06:19:00;;;;;;;21.17;9.32;;;;;;;;;;4952150;28;92928;-82
2023/05/10 06:21:27;;;;;;;16.48;8.60;;;;;;;;;;4950726;28;93490;-83
2023/05/10 06:23:53;;;;;;;17.08;7.38;;;;;;;;;;4950582;28;92401;-82
2023/05/10 06:26:20;;;;;;;14.60;6.93;;;;;;;;;;4951285;28;92668;-85
2023/05/10 06:28:47;;;;;;;17.58;8.20;;;;;;;;;;4950742;28;97449;-85
2023/05/10 06:31:13;;;;;;;13.55;7.05;;;;;;;;;;4954501;28;92383;-83
2023/05/10 06:33:40;;;;;;;17.15;6.90;;;;;;;;;;4946399;28;97981;-83
2023/05/10 06:36:07;;;;;;;13.68;7.25;;;;;;;;;;4951320;28;92571;-83
2023/05/10 06:38:33;;;;;;;13.10;6.65;;;;;;;;;;4950119;28;93120;-83
2023/05/10 06:41:00;;;;;;;13.98;6.50;;;;;;;;;;4942321;28;92647;-84
2023/05/10 06:43:28;;;;;;;13.55;6.20;;;;;;;;;;4944321;28;93006;-86
2023/05/10 06:45:55;;;;;;;11.30;6.05;;;;;;;;;;4940654;28;93372;-86
2023/05/10 06:48:21;;;;;;;12.00;5.65;;;;;;;;;;4950754;28;93152;-86
2023/05/10 06:50:48;;;;;;;11.65;6.03;;;;;;;;;;4988625;28;92121;-85
2023/05/10 06:53:15;;;;;;;12.10;5.88;;;;;;;;;;4966996;28;93036;-84
2023/05/10 06:55:41;;;;;;;13.18;5.80;;;;;;;;;;4962850;28;92930;-84
2023/05/10 06:58:08;;;;;;;12.57;5.72;;;;;;;;;;4970339;28;94939;-84
2023/05/10 07:00:35;;;;;;;10.65;5.47;;;;;;;;;;4962318;28;93470;-83
2023/05/10 07:03:01;;;;;;;10.75;5.35;;;;;;;;;;4960774;28;92608;-83
2023/05/10 07:05:29;;;;;;;10.50;5.15;;;;;;;;;;4967530;28;92634;-83
2023/05/10 07:07:55;;;;;;;11.35;5.50;;;;;;;;;;4943984;28;95169;-83
2023/05/10 07:10:22;;;;;;;11.25;5.55;;;;;;;;;;4946235;28;92593;-83
2023/05/10 07:12:48;;;;;;;10.32;5.03;;;;;;;;;;4947648;28;92486;-84
2023/05/10 07:15:15;;;;;;;9.52;4.97;;;;;;;;;;4953367;28;93572;-84
2023/05/10 07:17:42;;;;;;;9.98;4.97;;;;;;;;;;4950135;28;92546;-84
2023/05/10 07:20:11;;;;;;;9.63;4.75;;;;;;;;;;4947594;28;93034;-84
2023/05/10 07:22:38;;;;;;;8.35;4.43;;;;;;;;;;4936812;28;94927;-84
2023/05/10 07:25:05;;;;;;;8.52;4.40;;;;;;;;;;4948892;28;95519;-85
2023/05/10 07:27:32;;;;;;;8.75;4.55;;;;;;;;;;4949763;28;93802;-83
2023/05/10 07:29:58;;;;;;;10.13;4.53;;;;;;;;;;4949190;28;92538;-85
2023/05/10 07:32:26;;;;;;;;;;;;;;;;;;4940504;28;93018;-83
2023/05/10 07:34:52;;;;;;;9.98;4.43;;;;;;;;;;4950462;28;93082;-83
2023/05/10 07:37:19;;;;;;;8.95;4.30;;;;;;;;;;4952395;28;92710;-81
2023/05/10 07:39:46;;;;;;;9.30;4.30;;;;;;;;;;4949568;28;92286;-82
2023/05/10 07:42:12;;;;;;;9.07;4.18;;;;;;;;;;4949949;28;92772;-80
2023/05/10 07:44:38;;;;;;;8.70;4.30;;;;;;;;;;4946572;28;95780;-81
2023/05/10 07:47:05;;;;;;;8.77;4.00;;;;;;;;;;4945231;28;96739;-81
2023/05/10 07:49:32;;;;;;;8.15;4.10;;;;;;;;;;4948903;28;93453;-81
2023/05/10 07:52:02;;;;;;;8.70;3.80;;;;;;;;;;4949942;28;92734;-82
2023/05/10 07:54:29;;;;;;;8.57;4.32;;;;;;;;;;4946438;28;95982;-80
2023/05/10 07:56:56;;;;;;;7.68;3.90;;;;;;;;;;4951218;28;92544;-81
2023/05/10 07:59:22;;;;;;;8.27;4.00;;;;;;;;;;4949325;28;93283;-81
2023/05/10 08:01:49;;;;;;;7.28;3.72;;;;;;;;;;4948310;28;92856;-81
2023/05/10 08:04:15;;;;;;;9.35;4.40;;;;;;;;;;4946808;28;92668;-81
2023/05/10 08:06:42;;;;;;;7.75;3.85;;;;;;;;;;4948727;28;93494;-82
2023/05/10 08:09:09;;;;;;;8.35;3.92;;;;;;;;;;4948205;28;93065;-80
2023/05/10 08:11:35;;;;;;;8.02;3.70;;;;;;;;;;4944013;28;95325;-81
2023/05/10 08:14:02;;;;;;;8.50;4.15;;;;;;;;;;4944950;28;93318;-80
2023/05/10 08:16:32;;;;;;;8.32;3.45;;;;;;;;;;4940703;28;92775;-80
2023/05/10 08:19:04;;;;;;;8.13;4.15;;;;;;;;;;4951993;28;92360;-80
2023/05/10 08:21:31;;;;;;;7.38;3.80;;;;;;;;;;4948470;28;92638;-80
2023/05/10 08:23:57;;;;;;;8.65;4.10;;;;;;;;;;4947645;28;95834;-80
2023/05/10 08:26:24;;;;;;;7.95;4.35;;;;;;;;;;4949399;28;92974;-80
2023/05/10 08:28:50;;;;;;;7.63;4.03;;;;;;;;;;4941851;28;91767;-80
2023/05/10 08:31:17;;;;;;;7.82;3.60;;;;;;;;;;4948419;28;94206;-79
2023/05/10 08:33:44;;;;;;;8.55;4.00;;;;;;;;;;4953545;28;93237;-80
2023/05/10 08:36:11;;;;;;;8.35;3.85;;;;;;;;;;4946987;28;94948;-80
2023/05/10 08:38:37;;;;;;;7.35;3.80;;;;;;;;;;4946080;28;95177;-80
2023/05/10 08:41:05;;;;;;;7.80;3.88;;;;;;;;;;4951844;28;93029;-81
2023/05/10 08:43:31;;;;;;;8.35;4.10;;;;;;;;;;4949729;28;92753;-81
2023/05/10 08:46:02;;;;;;;7.75;3.67;;;;;;;;;;4951568;28;93307;-80
2023/05/10 08:48:29;;;;;;;7.95;3.78;;;;;;;;;;4951080;28;92649;-80
2023/05/10 08:50:57;;;;;;;7.25;3.65;;;;;;;;;;4952696;28;93276;-81
2023/05/10 08:53:26;;;;;;;8.15;3.97;;;;;;;;;;4957792;28;93266;-80
2023/05/10 08:55:53;;;;;;;7.90;4.10;;;;;;;;;;4961925;28;92946;-80
2023/05/10 08:58:19;;;;;;;7.60;3.58;;;;;;;;;;4964875;28;92349;-80
2023/05/10 09:00:46;;;;;;;9.05;3.90;;;;;;;;;;4961392;28;95282;-81
2023/05/10 09:03:13;;;;;;;8.10;3.50;;;;;;;;;;4970661;28;92532;-83
2023/05/10 09:05:41;;;;;;;7.32;3.58;;;;;;;;;;4942072;28;93282;-81
2023/05/10 09:08:08;;;;;;;8.07;3.83;;;;;;;;;;4957645;28;92387;-81
2023/05/10 09:10:35;;;;;;;8.38;4.45;;;;;;;;;;4955495;28;93414;-84
2023/05/10 09:13:02;;;;;;;17.38;9.07;;;;;;;;;;4953619;28;94105;-81
2023/05/10 09:15:28;;;;;;;17.50;10.85;;;;;;;;;;4955018;28;92697;-82
2023/05/10 09:17:55;;;;;;;14.82;8.63;;;;;;;;;;4951357;28;92865;-81
2023/05/10 09:20:22;;;;;;;13.90;7.38;;;;;;;;;;4961525;28;92857;-80
2023/05/10 09:22:49;;;;;;;10.98;5.95;;;;;;;;;;4973083;28;92493;-82
2023/05/10 09:25:16;;;;;;;10.57;5.93;;;;;;;;;;4972559;28;94837;-82
2023/05/10 09:27:47;;;;;;;9.77;5.28;;;;;;;;;;4980045;28;92716;-86
2023/05/10 09:30:17;;;;;;;10.30;5.90;;;;;;;;;;4985149;28;91995;-83
2023/05/10 09:32:45;;;;;;;10.25;5.35;;;;;;;;;;4967213;28;93311;-80
2023/05/10 09:35:15;;;;;;;9.48;5.25;;;;;;;;;;4961877;28;92608;-81
2023/05/10 09:37:45;;;;;;;10.40;5.75;;;;;;;;;;4950139;28;93392;-81
2023/05/10 09:40:13;;;;;;;12.10;5.40;;;;;;;;;;4946489;28;93188;-80
2023/05/10 09:42:42;;;;;;;16.10;5.20;;;;;;;;;;4948830;28;92502;-79
2023/05/10 09:45:08;;;;;;;10.82;5.25;;;;;;;;;;4951890;28;92540;-82
2023/05/10 09:47:35;;;;;;;8.93;4.57;;;;;;;;;;4948226;28;93124;-82
2023/05/10 09:50:03;;;;;;;11.43;5.10;;;;;;;;;;4948978;28;95279;-82
2023/05/10 09:52:31;;;;;;;11.38;4.57;;;;;;;;;;4949982;28;93164;-82
2023/05/10 09:54:57;;;;;;;10.43;5.22;;;;;;;;;;4949386;28;92523;-82
2023/05/10 09:57:25;;;;;;;9.10;4.97;;;;;;;;;;4951455;28;93080;-82
2023/05/10 09:59:54;;;;;;;8.80;4.65;;;;;;;;;;4950203;28;93111;-82
2023/05/10 10:02:21;;;;;;;10.07;4.75;;;;;;;;;;4953352;28;92517;-82
2023/05/10 10:04:48;;;;;;;9.15;4.53;;;;;;;;;;4950364;28;93657;-82
2023/05/10 10:07:21;;;;;;;10.20;4.43;;;;;;;;;;4953366;28;94028;-83
2023/05/10 10:09:48;;;;;;;8.15;4.40;;;;;;;;;;4950945;28;92847;-83
2023/05/10 10:12:14;;;;;;;9.82;4.70;;;;;;;;;;4950827;28;93209;-83
2023/05/10 10:14:41;;;;;;;8.57;4.35;;;;;;;;;;4948390;28;95133;-82
2023/05/10 10:17:08;;;;;;;8.43;4.10;;;;;;;;;;4952550;28;95974;-82
2023/05/10 10:19:36;;;;;;;8.80;4.05;;;;;;;;;;4950991;28;93401;-82
2023/05/10 10:22:03;;;;;;;7.65;3.80;;;;;;;;;;4951535;28;92458;-83
2023/05/10 10:24:40;;;;;;;7.93;4.22;;;;;;;;;;4949309;28;93841;-83
2023/05/10 10:27:26;;;;;;;8.57;4.13;;;;;;;;;;4949994;28;93886;-82
2023/05/10 10:30:11;;;;;;;7.50;3.75;;;;;;;;;;4953896;28;92431;-83
2023/05/10 10:32:46;;;;;;;7.97;3.63;;;;;;;;;;4951074;28;93045;-82
2023/05/10 10:35:12;;;;;;;7.45;3.63;;;;;;;;;;4948547;28;93129;-82
2023/05/10 10:37:43;;;;;;;7.53;3.90;;;;;;;;;;4949295;28;92760;-82
2023/05/10 10:40:29;;;;;;;8.48;3.78;;;;;;;;;;4946998;28;98294;-82
2023/05/10 10:43:19;;;;;;;7.60;3.53;;;;;;;;;;4943994;28;92579;-82
2023/05/10 10:46:05;;;;;;;10.35;3.75;;;;;;;;;;4948875;28;92792;-79
2023/05/10 10:48:32;;;;;;;8.00;3.70;;;;;;;;;;4945247;28;93150;-79
2023/05/10 10:50:58;;;;;;;8.30;3.88;;;;;;;;;;4942852;28;92696;-81
2023/05/10 10:53:29;;;;;;;7.78;3.88;;;;;;;;;;4959625;28;93036;-81
2023/05/10 10:56:06;;;;;;;9.45;3.92;;;;;;;;;;4955856;28;92861;-80
2023/05/10 10:58:33;;;;;;;9.00;4.22;;;;;;;;;;4947559;28;92688;-79
2023/05/10 11:01:12;;;;;;;8.85;4.13;;;;;;;;;;4948328;28;93597;-79
2023/05/10 11:03:38;;;;;;;8.32;4.32;;;;;;;;;;4946394;28;92832;-79
2023/05/10 11:06:05;;;;;;;8.32;4.30;;;;;;;;;;4947305;28;95009;-79
2023/05/10 11:08:32;;;;;;;9.18;4.50;;;;;;;;;;4945581;28;93720;-79
2023/05/10 11:11:06;;;;;;;9.35;4.53;;;;;;;;;;4948321;28;92478;-79
2023/05/10 11:13:40;;;;;;;8.65;4.50;;;;;;;;;;4949338;28;92704;-79
2023/05/10 11:16:06;;;;;;;;;;;;;;;;;;4959532;28;94194;-80
2023/05/10 11:18:36;;;;;;;8.52;4.30;;;;;;;;;;4937467;28;92528;-80
2023/05/10 11:21:04;;;;;;;8.77;4.20;;;;;;;;;;4946404;28;93987;-81
2023/05/10 11:23:32;;;;;;;8.90;4.40;;;;;;;;;;4950421;28;91816;-81
2023/05/10 11:25:58;;;;;;;;;;;;;;;;;;4948058;28;94794;-80
2023/05/10 11:28:26;;;;;;;8.73;4.05;;;;;;;;;;4936968;28;111969;-80
2023/05/10 11:30:53;;;;;;;7.50;3.90;;;;;;;;;;4947857;28;96374;-80
2023/05/10 11:33:19;;;;;;;8.27;3.83;;;;;;;;;;4948923;28;95496;-80
2023/05/10 11:35:46;;;;;;;8.48;3.83;;;;;;;;;;4930879;28;95894;-80
2023/05/10 11:38:13;;;;;;;7.75;3.60;;;;;;;;;;4951503;28;92575;-79
2023/05/10 11:40:40;;;;;;;8.77;3.95;;;;;;;;;;4946809;28;93186;-80
2023/05/10 11:43:08;;;;;;;7.35;3.63;;;;;;;;;;4948815;28;99324;-79
2023/05/10 11:45:35;;;;;;;8.23;3.40;;;;;;;;;;4937724;28;92475;-80
2023/05/10 11:48:02;;;;;;;8.73;3.60;;;;;;;;;;4946932;28;92803;-79
2023/05/10 11:50:29;;;;;;;9.27;3.55;;;;;;;;;;4948889;28;93070;-79
2023/05/10 11:52:56;;;;;;;7.57;3.50;;;;;;;;;;4947068;28;93310;-79
2023/05/10 11:55:24;;;;;;;9.07;3.63;;;;;;;;;;4946694;28;96007;-79
2023/05/10 11:57:54;;;;;;;7.68;3.45;;;;;;;;;;4947053;28;92646;-79
2023/05/10 12:00:21;;;;;;;8.77;3.72;;;;;;;;;;4949735;28;92702;-79
2023/05/10 12:02:48;;;;;;;7.15;3.38;;;;;;;;;;4948876;28;92537;-79
2023/05/10 12:05:15;;;;;;;10.60;3.45;;;;;;;;;;4954814;28;92926;-81
2023/05/10 12:07:45;;;;;;;7.82;3.20;;;;;;;;;;4961141;28;93684;-80
2023/05/10 12:10:16;;;;;;;8.30;3.17;;;;;;;;;;4960348;28;96536;-80
2023/05/10 12:12:49;;;;;;;9.88;3.40;;;;;;;;;;4936164;28;92950;-81
2023/05/10 12:15:19;;;;;;;10.10;3.72;;;;;;;;;;4950319;28;94289;-79
2023/05/10 12:17:46;;;;;;;9.15;3.03;;;;;;;;;;4958650;28;92591;-83
2023/05/10 12:20:14;;;;;;;;;;;;;;;;;;4972338;28;94889;-80
2023/05/10 12:22:45;;;;;;;10.40;3.20;;;;;;;;;;4983002;28;94317;-80
2023/05/10 12:25:13;;;;;;;8.43;3.35;;;;;;;;;;4953567;28;92524;-80
2023/05/10 12:27:40;;;;;;;8.05;3.40;;;;;;;;;;4967937;28;92361;-80
2023/05/10 12:30:07;;;;;;;7.78;3.15;;;;;;;;;;4978570;28;92846;-79
2023/05/10 12:32:43;;;;;;;7.05;2.80;;;;;;;;;;4977682;28;93980;-80
2023/05/10 12:35:11;;;;;;;9.75;3.08;;;;;;;;;;4965776;28;93796;-80
2023/05/10 12:37:41;;;;;;;8.70;3.00;;;;;;;;;;4958386;28;92061;-78
2023/05/10 12:40:09;;;;;;;6.85;2.83;;;;;;;;;;4977007;28;94773;-79
2023/05/10 12:42:35;;;;;;;6.60;3.00;;;;;;;;;;4964194;28;93680;-80
2023/05/10 12:45:03;;;;;;;9.25;3.03;;;;;;;;;;4965641;28;95531;-81
2023/05/10 12:47:30;;;;;;;7.55;3.10;;;;;;;;;;4962538;28;94753;-80
2023/05/10 12:49:56;;;;;;;6.28;2.63;;;;;;;;;;4963629;28;92771;-80
2023/05/10 12:52:23;;;;;;;6.55;2.90;;;;;;;;;;4964644;28;93069;-80
2023/05/10 12:54:50;;;;;;;7.75;2.65;;;;;;;;;;4969661;28;93815;-80
2023/05/10 12:57:16;;;;;;;7.85;2.92;;;;;;;;;;4968315;28;92489;-80
2023/05/10 12:59:43;;;;;;;6.55;2.80;;;;;;;;;;4963296;28;93017;-81
2023/05/10 13:02:10;;;;;;;9.82;3.17;;;;;;;;;;4972344;28;93986;-82
2023/05/10 13:04:39;;;;;;;6.30;2.95;;;;;;;;;;4975079;28;93004;-80
2023/05/10 13:07:06;;;;;;;8.10;2.97;;;;;;;;;;4961447;28;95374;-80
2023/05/10 13:09:32;;;;;;;7.32;2.90;;;;;;;;;;4962224;28;94852;-80
2023/05/10 13:11:59;;;;;;;7.30;2.78;;;;;;;;;;4970803;28;96996;-80
2023/05/10 13:14:26;;;;;;;6.88;3.05;;;;;;;;;;4973482;28;94191;-80
2023/05/10 13:16:53;;;;;;;6.50;2.72;;;;;;;;;;4955139;28;92407;-80
2023/05/10 13:19:20;;;;;;;6.03;2.70;;;;;;;;;;4952053;28;92825;-80
2023/05/10 13:21:46;;;;;;;9.25;3.10;;;;;;;;;;4956658;28;93410;-80
2023/05/10 13:24:13;;;;;;;7.57;2.90;;;;;;;;;;4973225;28;92538;-80
2023/05/10 13:26:40;;;;;;;6.43;2.75;;;;;;;;;;4969553;28;93217;-80
2023/05/10 13:29:07;;;;;;;7.00;2.85;;;;;;;;;;4971493;28;99622;-80
2023/05/10 13:31:34;;;;;;;6.25;2.70;;;;;;;;;;4970440;28;92728;-80
2023/05/10 13:34:00;;;;;;;6.13;2.80;;;;;;;;;;4954372;28;96093;-80
2023/05/10 13:36:27;;;;;;;5.63;2.63;;;;;;;;;;4948012;28;92330;-79
2023/05/10 13:38:54;;;;;;;6.10;2.60;;;;;;;;;;4937086;28;95687;-79
2023/05/10 13:41:21;;;;;;;7.90;2.80;;;;;;;;;;4969880;28;93025;-78
2023/05/10 13:43:49;;;;;;;5.95;2.60;;;;;;;;;;4951720;28;92894;-78
2023/05/10 13:46:16;;;;;;;6.00;2.60;;;;;;;;;;4953553;28;93226;-78
2023/05/10 13:48:43;;;;;;;6.22;2.50;;;;;;;;;;4970475;28;93292;-78
2023/05/10 13:51:09;;;;;;;6.90;2.53;;;;;;;;;;4968933;28;93330;-78
2023/05/10 13:53:36;;;;;;;6.70;2.80;;;;;;;;;;4966342;28;94009;-78
2023/05/10 13:56:02;;;;;;;7.05;2.90;;;;;;;;;;4969932;28;92480;-78
2023/05/10 13:58:29;;;;;;;6.03;2.35;;;;;;;;;;4951512;28;95449;-78
2023/05/10 14:00:55;;;;;;;6.00;2.58;;;;;;;;;;4963755;28;93341;-78
2023/05/10 14:03:22;;;;;;;5.80;2.80;;;;;;;;;;4950665;28;92715;-79
2023/05/10 14:05:48;;;;;;;7.20;2.90;;;;;;;;;;4961840;28;92832;-78
2023/05/10 14:08:15;;;;;;;5.85;2.35;;;;;;;;;;4969172;28;94272;-78
2023/05/10 14:10:42;;;;;;;6.05;2.63;;;;;;;;;;4970444;28;92679;-78
2023/05/10 14:13:08;;;;;;;6.35;2.72;;;;;;;;;;4963788;28;93152;-78
2023/05/10 14:15:34;;;;;;;7.05;2.83;;;;;;;;;;4969855;28;92254;-78
2023/05/10 14:18:01;;;;;;;5.00;2.30;;;;;;;;;;4967524;28;92688;-78
2023/05/10 14:20:28;;;;;;;8.27;2.90;;;;;;;;;;4966180;28;93267;-78
2023/05/10 14:22:54;;;;;;;6.70;2.60;;;;;;;;;;4956473;28;95259;-78
2023/05/10 14:25:21;;;;;;;7.03;2.70;;;;;;;;;;4961164;28;95791;-78
2023/05/10 14:27:47;;;;;;;6.18;2.60;;;;;;;;;;4962853;28;93683;-78
2023/05/10 14:30:14;;;;;;;6.85;2.53;;;;;;;;;;4952902;28;92540;-78
2023/05/10 14:32:41;;;;;;;6.68;2.88;;;;;;;;;;4958831;28;94076;-78
2023/05/10 14:35:07;;;;;;;6.68;2.65;;;;;;;;;;4960368;28;92699;-78